Terminal Aerodrome Forecast
Issued by NWS

Home | Current Version | Previous Version | Text Only | Print | Product List | Glossary On
Versions: 1 2 3 4 5 6 7 8 9 10 11 12 13
000
FTAK31 PAJN 042322
TAFASI
TAF
PASI 042322Z 0500/0524 28010KT P6SM SCT060 BKN120
     FM050400 24005KT P6SM SCT025 BKN050 OVC100
     FM051000 VRB03KT P6SM OVC050
     FM051600 14006KT P6SM VCSH SCT020 OVC040
     FM052100 16008KT P6SM -SHRA OVC035=

USA.gov is the U.S. government's official web portal to all federal, state and local government web resources and services.